sensor_id;sensor_type;location;lat;lon;timestamp;temperature;humidity
55785;DHT22;41709;52.536;5.688;2023-11-19T00:01:51;12.90;97.20
55785;DHT22;41709;52.536;5.688;2023-11-19T00:04:17;12.90;97.20
55785;DHT22;41709;52.536;5.688;2023-11-19T00:06:42;12.90;97.30
55785;DHT22;41709;52.536;5.688;2023-11-19T00:09:08;12.90;97.20
55785;DHT22;41709;52.536;5.688;2023-11-19T00:11:33;13.00;97.20
55785;DHT22;41709;52.536;5.688;2023-11-19T00:13:58;13.00;97.20
55785;DHT22;41709;52.536;5.688;2023-11-19T00:16:24;13.00;97.10
55785;DHT22;41709;52.536;5.688;2023-11-19T00:18:49;13.00;97.10
55785;DHT22;41709;52.536;5.688;2023-11-19T00:21:15;13.00;97.00
55785;DHT22;41709;52.536;5.688;2023-11-19T00:23:40;13.00;97.00
55785;DHT22;41709;52.536;5.688;2023-11-19T00:26:06;13.00;97.00
55785;DHT22;41709;52.536;5.688;2023-11-19T00:28:32;12.90;96.80
55785;DHT22;41709;52.536;5.688;2023-11-19T00:30:58;13.00;96.90
55785;DHT22;41709;52.536;5.688;2023-11-19T00:33:24;13.00;96.90
55785;DHT22;41709;52.536;5.688;2023-11-19T00:35:49;13.00;96.80
55785;DHT22;41709;52.536;5.688;2023-11-19T00:38:15;13.10;96.70
55785;DHT22;41709;52.536;5.688;2023-11-19T00:40:41;13.10;96.60
55785;DHT22;41709;52.536;5.688;2023-11-19T00:43:06;13.20;96.60
55785;DHT22;41709;52.536;5.688;2023-11-19T00:45:32;13.20;96.50
55785;DHT22;41709;52.536;5.688;2023-11-19T00:47:58;13.20;96.30
55785;DHT22;41709;52.536;5.688;2023-11-19T00:50:25;13.20;96.30
55785;DHT22;41709;52.536;5.688;2023-11-19T00:52:50;13.10;96.30
55785;DHT22;41709;52.536;5.688;2023-11-19T00:55:16;13.10;96.20
55785;DHT22;41709;52.536;5.688;2023-11-19T00:57:42;13.20;96.30
55785;DHT22;41709;52.536;5.688;2023-11-19T01:00:08;13.20;96.10
55785;DHT22;41709;52.536;5.688;2023-11-19T01:02:52;13.20;96.00
55785;DHT22;41709;52.536;5.688;2023-11-19T01:05:18;13.30;96.00
55785;DHT22;41709;52.536;5.688;2023-11-19T01:07:47;13.20;95.80
55785;DHT22;41709;52.536;5.688;2023-11-19T01:10:12;13.20;95.90
55785;DHT22;41709;52.536;5.688;2023-11-19T01:12:38;13.10;95.90
55785;DHT22;41709;52.536;5.688;2023-11-19T01:15:04;13.20;95.90
55785;DHT22;41709;52.536;5.688;2023-11-19T01:17:30;13.00;96.00
55785;DHT22;41709;52.536;5.688;2023-11-19T01:19:57;13.00;95.90
55785;DHT22;41709;52.536;5.688;2023-11-19T01:22:22;13.00;95.90
55785;DHT22;41709;52.536;5.688;2023-11-19T01:24:48;12.90;95.80
55785;DHT22;41709;52.536;5.688;2023-11-19T01:27:14;13.00;95.80
55785;DHT22;41709;52.536;5.688;2023-11-19T01:29:39;12.90;95.70
55785;DHT22;41709;52.536;5.688;2023-11-19T01:32:05;12.90;95.80
55785;DHT22;41709;52.536;5.688;2023-11-19T01:34:30;12.90;95.70
55785;DHT22;41709;52.536;5.688;2023-11-19T01:36:56;12.90;95.80
55785;DHT22;41709;52.536;5.688;2023-11-19T01:39:21;12.80;95.80
55785;DHT22;41709;52.536;5.688;2023-11-19T01:41:47;12.80;95.80
55785;DHT22;41709;52.536;5.688;2023-11-19T01:44:13;12.80;95.80
55785;DHT22;41709;52.536;5.688;2023-11-19T01:46:40;12.80;95.70
55785;DHT22;41709;52.536;5.688;2023-11-19T01:49:05;12.80;95.80
55785;DHT22;41709;52.536;5.688;2023-11-19T01:51:31;12.70;95.80
55785;DHT22;41709;52.536;5.688;2023-11-19T01:53:56;12.70;95.80
55785;DHT22;41709;52.536;5.688;2023-11-19T01:56:23;12.70;96.00
55785;DHT22;41709;52.536;5.688;2023-11-19T01:58:49;12.70;96.00
55785;DHT22;41709;52.536;5.688;2023-11-19T02:01:15;12.70;96.00
55785;DHT22;41709;52.536;5.688;2023-11-19T02:03:41;12.80;96.00
55785;DHT22;41709;52.536;5.688;2023-11-19T02:06:06;12.80;95.70
55785;DHT22;41709;52.536;5.688;2023-11-19T02:08:32;12.80;95.80
55785;DHT22;41709;52.536;5.688;2023-11-19T02:10:58;12.80;95.80
55785;DHT22;41709;52.536;5.688;2023-11-19T02:13:24;12.80;95.70
55785;DHT22;41709;52.536;5.688;2023-11-19T02:15:50;12.80;95.80
55785;DHT22;41709;52.536;5.688;2023-11-19T02:20:44;12.80;95.70
55785;DHT22;41709;52.536;5.688;2023-11-19T02:23:10;12.80;95.60
55785;DHT22;41709;52.536;5.688;2023-11-19T02:25:36;12.80;95.60
55785;DHT22;41709;52.536;5.688;2023-11-19T02:28:02;12.80;95.50
55785;DHT22;41709;52.536;5.688;2023-11-19T02:30:28;12.80;95.60
55785;DHT22;41709;52.536;5.688;2023-11-19T02:32:58;12.80;95.60
55785;DHT22;41709;52.536;5.688;2023-11-19T02:35:24;12.80;95.50
55785;DHT22;41709;52.536;5.688;2023-11-19T02:37:51;12.70;95.60
55785;DHT22;41709;52.536;5.688;2023-11-19T02:40:16;12.70;95.70
55785;DHT22;41709;52.536;5.688;2023-11-19T02:42:42;12.60;95.80
55785;DHT22;41709;52.536;5.688;2023-11-19T02:45:08;12.60;95.80
55785;DHT22;41709;52.536;5.688;2023-11-19T02:47:39;12.60;95.80
55785;DHT22;41709;52.536;5.688;2023-11-19T02:50:06;12.50;95.90
55785;DHT22;41709;52.536;5.688;2023-11-19T02:52:38;12.60;95.90
55785;DHT22;41709;52.536;5.688;2023-11-19T02:55:04;12.60;95.70
55785;DHT22;41709;52.536;5.688;2023-11-19T02:57:34;12.60;95.50
55785;DHT22;41709;52.536;5.688;2023-11-19T02:59:59;12.60;95.60
55785;DHT22;41709;52.536;5.688;2023-11-19T03:02:25;12.60;95.50
55785;DHT22;41709;52.536;5.688;2023-11-19T03:04:59;12.60;95.50
55785;DHT22;41709;52.536;5.688;2023-11-19T03:07:25;12.70;95.50
55785;DHT22;41709;52.536;5.688;2023-11-19T03:09:50;12.70;95.30
55785;DHT22;41709;52.536;5.688;2023-11-19T03:12:16;12.70;95.20
55785;DHT22;41709;52.536;5.688;2023-11-19T03:14:41;12.70;95.20
55785;DHT22;41709;52.536;5.688;2023-11-19T03:17:07;12.70;95.10
55785;DHT22;41709;52.536;5.688;2023-11-19T03:19:35;12.70;95.10
55785;DHT22;41709;52.536;5.688;2023-11-19T03:22:01;12.70;95.40
55785;DHT22;41709;52.536;5.688;2023-11-19T03:24:27;12.70;94.90
55785;DHT22;41709;52.536;5.688;2023-11-19T03:26:52;12.70;94.70
55785;DHT22;41709;52.536;5.688;2023-11-19T03:29:18;12.70;94.50
55785;DHT22;41709;52.536;5.688;2023-11-19T03:31:43;12.70;94.50
55785;DHT22;41709;52.536;5.688;2023-11-19T03:34:10;12.70;94.40
55785;DHT22;41709;52.536;5.688;2023-11-19T03:36:35;12.60;94.40
55785;DHT22;41709;52.536;5.688;2023-11-19T03:39:01;12.60;94.30
55785;DHT22;41709;52.536;5.688;2023-11-19T03:41:26;12.60;94.40
55785;DHT22;41709;52.536;5.688;2023-11-19T03:43:52;12.50;94.30
55785;DHT22;41709;52.536;5.688;2023-11-19T03:46:21;12.50;94.20
55785;DHT22;41709;52.536;5.688;2023-11-19T03:48:47;12.50;94.30
55785;DHT22;41709;52.536;5.688;2023-11-19T03:51:13;12.50;94.20
55785;DHT22;41709;52.536;5.688;2023-11-19T03:53:42;12.50;94.30
55785;DHT22;41709;52.536;5.688;2023-11-19T03:56:07;12.40;94.20
55785;DHT22;41709;52.536;5.688;2023-11-19T03:58:34;12.50;94.20
55785;DHT22;41709;52.536;5.688;2023-11-19T04:01:01;12.30;94.20
55785;DHT22;41709;52.536;5.688;2023-11-19T04:03:26;12.40;94.20
55785;DHT22;41709;52.536;5.688;2023-11-19T04:05:52;12.40;94.20
55785;DHT22;41709;52.536;5.688;2023-11-19T04:08:17;12.30;94.30
55785;DHT22;41709;52.536;5.688;2023-11-19T04:10:43;12.30;94.40
55785;DHT22;41709;52.536;5.688;2023-11-19T04:13:08;12.30;94.60
55785;DHT22;41709;52.536;5.688;2023-11-19T04:15:33;12.30;94.60
55785;DHT22;41709;52.536;5.688;2023-11-19T04:17:59;12.30;94.50
55785;DHT22;41709;52.536;5.688;2023-11-19T04:20:24;12.30;94.50
55785;DHT22;41709;52.536;5.688;2023-11-19T04:22:50;12.30;94.40
55785;DHT22;41709;52.536;5.688;2023-11-19T04:25:16;12.30;94.40
55785;DHT22;41709;52.536;5.688;2023-11-19T04:27:44;12.40;94.30
55785;DHT22;41709;52.536;5.688;2023-11-19T04:30:10;12.40;94.20
55785;DHT22;41709;52.536;5.688;2023-11-19T04:32:36;12.40;94.10
55785;DHT22;41709;52.536;5.688;2023-11-19T04:35:01;12.40;94.10
55785;DHT22;41709;52.536;5.688;2023-11-19T04:37:27;12.40;94.10
55785;DHT22;41709;52.536;5.688;2023-11-19T04:39:52;12.30;94.20
55785;DHT22;41709;52.536;5.688;2023-11-19T04:42:18;12.30;94.20
55785;DHT22;41709;52.536;5.688;2023-11-19T04:44:43;12.30;94.10
55785;DHT22;41709;52.536;5.688;2023-11-19T04:47:09;12.30;94.20
55785;DHT22;41709;52.536;5.688;2023-11-19T04:49:39;12.40;94.00
55785;DHT22;41709;52.536;5.688;2023-11-19T04:52:05;12.50;93.90
55785;DHT22;41709;52.536;5.688;2023-11-19T04:54:30;12.50;93.80
55785;DHT22;41709;52.536;5.688;2023-11-19T04:56:56;12.50;93.70
55785;DHT22;41709;52.536;5.688;2023-11-19T04:59:21;12.50;93.60
55785;DHT22;41709;52.536;5.688;2023-11-19T05:01:47;12.60;93.30
55785;DHT22;41709;52.536;5.688;2023-11-19T05:04:15;12.50;93.30
55785;DHT22;41709;52.536;5.688;2023-11-19T05:06:40;12.40;93.30
55785;DHT22;41709;52.536;5.688;2023-11-19T05:09:06;12.40;93.30
55785;DHT22;41709;52.536;5.688;2023-11-19T05:11:34;12.40;93.30
55785;DHT22;41709;52.536;5.688;2023-11-19T05:14:02;12.40;93.10
55785;DHT22;41709;52.536;5.688;2023-11-19T05:16:29;12.30;93.30
55785;DHT22;41709;52.536;5.688;2023-11-19T05:18:54;12.30;93.10
55785;DHT22;41709;52.536;5.688;2023-11-19T05:21:20;12.30;93.10
55785;DHT22;41709;52.536;5.688;2023-11-19T05:23:45;12.30;93.20
55785;DHT22;41709;52.536;5.688;2023-11-19T05:26:18;12.30;93.30
55785;DHT22;41709;52.536;5.688;2023-11-19T05:28:44;12.30;93.30
55785;DHT22;41709;52.536;5.688;2023-11-19T05:31:10;12.20;93.20
55785;DHT22;41709;52.536;5.688;2023-11-19T05:33:35;12.20;93.40
55785;DHT22;41709;52.536;5.688;2023-11-19T05:36:00;12.20;93.40
55785;DHT22;41709;52.536;5.688;2023-11-19T05:38:28;12.20;93.40
55785;DHT22;41709;52.536;5.688;2023-11-19T05:40:54;12.30;93.40
55785;DHT22;41709;52.536;5.688;2023-11-19T05:43:20;12.30;93.30
55785;DHT22;41709;52.536;5.688;2023-11-19T05:45:46;12.30;93.20
55785;DHT22;41709;52.536;5.688;2023-11-19T05:48:12;12.40;93.10
55785;DHT22;41709;52.536;5.688;2023-11-19T05:50:38;12.40;93.10
55785;DHT22;41709;52.536;5.688;2023-11-19T05:53:04;12.40;93.20
55785;DHT22;41709;52.536;5.688;2023-11-19T05:55:33;12.40;93.20
55785;DHT22;41709;52.536;5.688;2023-11-19T05:57:59;12.50;93.10
55785;DHT22;41709;52.536;5.688;2023-11-19T06:00:25;12.50;92.90
55785;DHT22;41709;52.536;5.688;2023-11-19T06:02:52;12.40;93.00
55785;DHT22;41709;52.536;5.688;2023-11-19T06:05:18;12.40;92.90
55785;DHT22;41709;52.536;5.688;2023-11-19T06:07:43;12.50;92.70
55785;DHT22;41709;52.536;5.688;2023-11-19T06:10:09;12.50;92.70
55785;DHT22;41709;52.536;5.688;2023-11-19T06:12:35;12.40;92.30
55785;DHT22;41709;52.536;5.688;2023-11-19T06:15:04;12.40;92.70
55785;DHT22;41709;52.536;5.688;2023-11-19T06:17:30;12.40;92.40
55785;DHT22;41709;52.536;5.688;2023-11-19T06:19:55;12.40;92.50
55785;DHT22;41709;52.536;5.688;2023-11-19T06:22:21;12.30;92.50
55785;DHT22;41709;52.536;5.688;2023-11-19T06:24:46;12.40;92.40
55785;DHT22;41709;52.536;5.688;2023-11-19T06:27:12;12.30;92.30
55785;DHT22;41709;52.536;5.688;2023-11-19T06:29:38;12.30;92.20
55785;DHT22;41709;52.536;5.688;2023-11-19T06:32:06;12.40;92.10
55785;DHT22;41709;52.536;5.688;2023-11-19T06:34:33;12.30;92.10
55785;DHT22;41709;52.536;5.688;2023-11-19T06:36:59;12.20;92.00
55785;DHT22;41709;52.536;5.688;2023-11-19T06:39:24;12.20;92.00
55785;DHT22;41709;52.536;5.688;2023-11-19T06:41:50;12.10;92.00
55785;DHT22;41709;52.536;5.688;2023-11-19T06:44:15;12.10;92.00
55785;DHT22;41709;52.536;5.688;2023-11-19T06:46:41;12.10;92.10
55785;DHT22;41709;52.536;5.688;2023-11-19T06:49:06;12.10;92.10
55785;DHT22;41709;52.536;5.688;2023-11-19T06:51:35;12.10;92.00
55785;DHT22;41709;52.536;5.688;2023-11-19T06:54:00;12.10;91.90
55785;DHT22;41709;52.536;5.688;2023-11-19T06:56:26;12.10;92.00
55785;DHT22;41709;52.536;5.688;2023-11-19T06:58:52;12.10;92.00
55785;DHT22;41709;52.536;5.688;2023-11-19T07:01:17;12.10;92.00
55785;DHT22;41709;52.536;5.688;2023-11-19T07:03:46;12.00;92.10
55785;DHT22;41709;52.536;5.688;2023-11-19T07:06:11;12.10;92.30
55785;DHT22;41709;52.536;5.688;2023-11-19T07:08:41;12.10;92.20
55785;DHT22;41709;52.536;5.688;2023-11-19T07:11:07;12.00;92.10
55785;DHT22;41709;52.536;5.688;2023-11-19T07:13:35;12.00;92.20
55785;DHT22;41709;52.536;5.688;2023-11-19T07:16:00;12.00;92.10
55785;DHT22;41709;52.536;5.688;2023-11-19T07:18:26;12.10;92.20
55785;DHT22;41709;52.536;5.688;2023-11-19T07:20:51;12.10;92.10
55785;DHT22;41709;52.536;5.688;2023-11-19T07:23:17;12.00;92.20
55785;DHT22;41709;52.536;5.688;2023-11-19T07:25:43;12.00;92.20
55785;DHT22;41709;52.536;5.688;2023-11-19T07:28:08;12.00;92.10
55785;DHT22;41709;52.536;5.688;2023-11-19T07:30:35;12.00;92.10
55785;DHT22;41709;52.536;5.688;2023-11-19T07:33:00;12.00;92.20
55785;DHT22;41709;52.536;5.688;2023-11-19T07:35:26;12.00;92.10
55785;DHT22;41709;52.536;5.688;2023-11-19T07:37:51;12.00;92.10
55785;DHT22;41709;52.536;5.688;2023-11-19T07:40:17;12.00;92.20
55785;DHT22;41709;52.536;5.688;2023-11-19T07:42:44;12.10;92.30
55785;DHT22;41709;52.536;5.688;2023-11-19T07:45:09;11.90;92.30
55785;DHT22;41709;52.536;5.688;2023-11-19T07:47:35;11.90;92.50
55785;DHT22;41709;52.536;5.688;2023-11-19T07:50:00;11.90;92.60
55785;DHT22;41709;52.536;5.688;2023-11-19T07:52:26;11.90;92.60
55785;DHT22;41709;52.536;5.688;2023-11-19T07:54:51;12.00;92.60
55785;DHT22;41709;52.536;5.688;2023-11-19T07:57:17;12.00;92.50
55785;DHT22;41709;52.536;5.688;2023-11-19T07:59:42;12.00;92.50
55785;DHT22;41709;52.536;5.688;2023-11-19T08:02:07;12.00;92.40
55785;DHT22;41709;52.536;5.688;2023-11-19T08:04:33;11.90;92.60
55785;DHT22;41709;52.536;5.688;2023-11-19T08:06:58;11.90;92.80
55785;DHT22;41709;52.536;5.688;2023-11-19T08:09:24;11.90;92.80
55785;DHT22;41709;52.536;5.688;2023-11-19T08:11:49;11.90;92.80
55785;DHT22;41709;52.536;5.688;2023-11-19T08:14:15;11.80;92.90
55785;DHT22;41709;52.536;5.688;2023-11-19T08:16:40;11.80;92.90
55785;DHT22;41709;52.536;5.688;2023-11-19T08:19:06;11.80;92.90
55785;DHT22;41709;52.536;5.688;2023-11-19T08:21:32;11.90;92.80
55785;DHT22;41709;52.536;5.688;2023-11-19T08:23:57;11.80;92.70
55785;DHT22;41709;52.536;5.688;2023-11-19T08:26:23;11.80;92.70
55785;DHT22;41709;52.536;5.688;2023-11-19T08:28:48;11.90;92.80
55785;DHT22;41709;52.536;5.688;2023-11-19T08:31:14;11.80;92.80
55785;DHT22;41709;52.536;5.688;2023-11-19T08:33:39;11.80;92.80
55785;DHT22;41709;52.536;5.688;2023-11-19T08:36:05;11.80;92.90
55785;DHT22;41709;52.536;5.688;2023-11-19T08:38:31;11.80;92.80
55785;DHT22;41709;52.536;5.688;2023-11-19T08:40:57;11.90;92.80
55785;DHT22;41709;52.536;5.688;2023-11-19T08:43:26;11.90;92.80
55785;DHT22;41709;52.536;5.688;2023-11-19T08:45:51;11.90;92.70
55785;DHT22;41709;52.536;5.688;2023-11-19T08:48:17;11.90;92.70
55785;DHT22;41709;52.536;5.688;2023-11-19T08:50:42;12.00;92.60
55785;DHT22;41709;52.536;5.688;2023-11-19T08:53:08;12.00;92.60
55785;DHT22;41709;52.536;5.688;2023-11-19T08:55:33;12.00;92.50
55785;DHT22;41709;52.536;5.688;2023-11-19T08:57:59;12.00;92.50
55785;DHT22;41709;52.536;5.688;2023-11-19T09:00:24;12.00;92.50
55785;DHT22;41709;52.536;5.688;2023-11-19T09:02:50;12.00;92.40
55785;DHT22;41709;52.536;5.688;2023-11-19T09:05:15;12.00;92.40
55785;DHT22;41709;52.536;5.688;2023-11-19T09:07:40;12.10;92.50
55785;DHT22;41709;52.536;5.688;2023-11-19T09:10:06;12.10;92.50
55785;DHT22;41709;52.536;5.688;2023-11-19T09:12:34;12.10;92.60
55785;DHT22;41709;52.536;5.688;2023-11-19T09:14:59;12.10;92.50
55785;DHT22;41709;52.536;5.688;2023-11-19T09:17:25;12.10;92.60
55785;DHT22;41709;52.536;5.688;2023-11-19T09:19:50;12.20;92.60
55785;DHT22;41709;52.536;5.688;2023-11-19T09:22:15;12.10;92.60
55785;DHT22;41709;52.536;5.688;2023-11-19T09:24:41;12.20;92.60
55785;DHT22;41709;52.536;5.688;2023-11-19T09:27:09;12.30;92.60
55785;DHT22;41709;52.536;5.688;2023-11-19T09:29:34;12.50;92.60
55785;DHT22;41709;52.536;5.688;2023-11-19T09:32:00;12.30;92.50
55785;DHT22;41709;52.536;5.688;2023-11-19T09:34:25;12.30;92.50
55785;DHT22;41709;52.536;5.688;2023-11-19T09:36:51;12.30;92.50
55785;DHT22;41709;52.536;5.688;2023-11-19T09:39:16;12.30;92.50
55785;DHT22;41709;52.536;5.688;2023-11-19T09:41:43;12.30;92.50
55785;DHT22;41709;52.536;5.688;2023-11-19T09:44:10;12.20;92.60
55785;DHT22;41709;52.536;5.688;2023-11-19T09:46:37;12.30;92.80
55785;DHT22;41709;52.536;5.688;2023-11-19T09:49:03;12.30;92.50
55785;DHT22;41709;52.536;5.688;2023-11-19T09:51:30;12.30;92.50
55785;DHT22;41709;52.536;5.688;2023-11-19T09:53:55;12.30;92.60
55785;DHT22;41709;52.536;5.688;2023-11-19T09:56:21;12.30;92.60
55785;DHT22;41709;52.536;5.688;2023-11-19T09:58:47;12.40;92.50
55785;DHT22;41709;52.536;5.688;2023-11-19T10:01:12;12.40;92.40
55785;DHT22;41709;52.536;5.688;2023-11-19T10:03:39;12.40;92.30
55785;DHT22;41709;52.536;5.688;2023-11-19T10:06:08;12.40;92.20
55785;DHT22;41709;52.536;5.688;2023-11-19T10:08:37;12.40;92.20
55785;DHT22;41709;52.536;5.688;2023-11-19T10:11:02;12.30;92.40
55785;DHT22;41709;52.536;5.688;2023-11-19T10:13:28;12.40;92.30
55785;DHT22;41709;52.536;5.688;2023-11-19T10:15:55;12.40;92.20
55785;DHT22;41709;52.536;5.688;2023-11-19T10:18:27;12.50;92.30
55785;DHT22;41709;52.536;5.688;2023-11-19T10:20:52;12.50;92.30
55785;DHT22;41709;52.536;5.688;2023-11-19T10:23:18;12.40;92.40
55785;DHT22;41709;52.536;5.688;2023-11-19T10:25:44;12.50;92.50
55785;DHT22;41709;52.536;5.688;2023-11-19T10:28:10;12.50;92.40
55785;DHT22;41709;52.536;5.688;2023-11-19T10:30:35;12.50;92.30
55785;DHT22;41709;52.536;5.688;2023-11-19T10:33:04;12.60;92.30
55785;DHT22;41709;52.536;5.688;2023-11-19T10:35:34;12.60;92.30
55785;DHT22;41709;52.536;5.688;2023-11-19T10:38:15;12.60;92.20
55785;DHT22;41709;52.536;5.688;2023-11-19T10:40:41;12.60;92.20
55785;DHT22;41709;52.536;5.688;2023-11-19T10:43:07;12.60;92.50
55785;DHT22;41709;52.536;5.688;2023-11-19T10:45:33;12.60;92.70
55785;DHT22;41709;52.536;5.688;2023-11-19T10:47:59;12.60;92.90
55785;DHT22;41709;52.536;5.688;2023-11-19T10:50:25;12.60;93.00
55785;DHT22;41709;52.536;5.688;2023-11-19T10:52:51;12.50;93.10
55785;DHT22;41709;52.536;5.688;2023-11-19T10:55:20;12.60;93.30
55785;DHT22;41709;52.536;5.688;2023-11-19T10:57:50;12.60;93.40
55785;DHT22;41709;52.536;5.688;2023-11-19T11:00:16;12.60;93.40
55785;DHT22;41709;52.536;5.688;2023-11-19T11:02:44;12.60;93.40
55785;DHT22;41709;52.536;5.688;2023-11-19T11:05:11;12.60;93.20
55785;DHT22;41709;52.536;5.688;2023-11-19T11:07:37;12.60;93.20
55785;DHT22;41709;52.536;5.688;2023-11-19T11:10:05;12.70;93.10
55785;DHT22;41709;52.536;5.688;2023-11-19T11:12:33;12.70;93.00
55785;DHT22;41709;52.536;5.688;2023-11-19T11:15:00;12.70;92.90
55785;DHT22;41709;52.536;5.688;2023-11-19T11:17:26;12.80;92.80
55785;DHT22;41709;52.536;5.688;2023-11-19T11:19:53;12.80;92.50
55785;DHT22;41709;52.536;5.688;2023-11-19T11:22:18;12.70;92.10
55785;DHT22;41709;52.536;5.688;2023-11-19T11:25:07;12.70;92.10
55785;DHT22;41709;52.536;5.688;2023-11-19T11:27:43;12.70;92.00
55785;DHT22;41709;52.536;5.688;2023-11-19T11:30:19;12.70;91.90
55785;DHT22;41709;52.536;5.688;2023-11-19T11:32:54;12.70;91.90
55785;DHT22;41709;52.536;5.688;2023-11-19T11:35:30;12.70;91.70
55785;DHT22;41709;52.536;5.688;2023-11-19T11:38:00;12.70;91.70
55785;DHT22;41709;52.536;5.688;2023-11-19T11:40:26;12.70;91.70
55785;DHT22;41709;52.536;5.688;2023-11-19T11:42:52;12.80;91.60
55785;DHT22;41709;52.536;5.688;2023-11-19T11:45:18;12.80;91.80
55785;DHT22;41709;52.536;5.688;2023-11-19T11:50:19;12.90;91.60
55785;DHT22;41709;52.536;5.688;2023-11-19T11:57:51;12.90;91.20
55785;DHT22;41709;52.536;5.688;2023-11-19T12:02:49;12.90;91.40
55785;DHT22;41709;52.536;5.688;2023-11-19T12:05:15;13.00;91.30
55785;DHT22;41709;52.536;5.688;2023-11-19T12:07:40;12.90;91.30
55785;DHT22;41709;52.536;5.688;2023-11-19T12:10:06;13.00;91.10
55785;DHT22;41709;52.536;5.688;2023-11-19T12:12:39;13.00;91.00
55785;DHT22;41709;52.536;5.688;2023-11-19T12:15:09;13.00;91.10
55785;DHT22;41709;52.536;5.688;2023-11-19T12:20:09;13.10;90.90
55785;DHT22;41709;52.536;5.688;2023-11-19T12:22:40;13.10;91.00
55785;DHT22;41709;52.536;5.688;2023-11-19T12:25:06;13.10;90.70
55785;DHT22;41709;52.536;5.688;2023-11-19T12:27:32;13.10;90.60
55785;DHT22;41709;52.536;5.688;2023-11-19T12:29:59;13.10;90.50
55785;DHT22;41709;52.536;5.688;2023-11-19T12:32:25;13.10;90.50
55785;DHT22;41709;52.536;5.688;2023-11-19T12:34:50;13.10;90.30
55785;DHT22;41709;52.536;5.688;2023-11-19T12:37:16;13.10;90.20
55785;DHT22;41709;52.536;5.688;2023-11-19T12:39:41;13.10;90.30
55785;DHT22;41709;52.536;5.688;2023-11-19T12:42:07;13.10;90.10
55785;DHT22;41709;52.536;5.688;2023-11-19T12:44:32;13.10;90.40
55785;DHT22;41709;52.536;5.688;2023-11-19T12:47:06;13.10;90.60
55785;DHT22;41709;52.536;5.688;2023-11-19T12:49:35;13.10;90.70
55785;DHT22;41709;52.536;5.688;2023-11-19T12:52:00;13.10;90.50
55785;DHT22;41709;52.536;5.688;2023-11-19T12:54:33;13.10;90.50
55785;DHT22;41709;52.536;5.688;2023-11-19T12:56:59;13.10;90.50
55785;DHT22;41709;52.536;5.688;2023-11-19T12:59:24;13.10;90.50
55785;DHT22;41709;52.536;5.688;2023-11-19T13:04:21;13.10;90.60
55785;DHT22;41709;52.536;5.688;2023-11-19T13:06:47;13.10;90.40
55785;DHT22;41709;52.536;5.688;2023-11-19T13:09:25;13.10;90.30
55785;DHT22;41709;52.536;5.688;2023-11-19T13:11:51;13.10;90.40
55785;DHT22;41709;52.536;5.688;2023-11-19T13:14:17;13.10;90.50
55785;DHT22;41709;52.536;5.688;2023-11-19T13:16:44;13.10;90.50
55785;DHT22;41709;52.536;5.688;2023-11-19T13:19:12;13.20;90.40
55785;DHT22;41709;52.536;5.688;2023-11-19T13:21:37;13.20;90.40
55785;DHT22;41709;52.536;5.688;2023-11-19T13:24:07;13.10;90.30
55785;DHT22;41709;52.536;5.688;2023-11-19T13:26:33;13.10;90.50
55785;DHT22;41709;52.536;5.688;2023-11-19T13:28:58;13.10;90.50
55785;DHT22;41709;52.536;5.688;2023-11-19T13:31:23;13.10;90.80
55785;DHT22;41709;52.536;5.688;2023-11-19T13:33:49;13.10;91.00
55785;DHT22;41709;52.536;5.688;2023-11-19T13:36:14;13.10;91.20
55785;DHT22;41709;52.536;5.688;2023-11-19T13:38:40;13.10;91.50
55785;DHT22;41709;52.536;5.688;2023-11-19T13:41:10;13.10;91.60
55785;DHT22;41709;52.536;5.688;2023-11-19T13:43:36;13.10;91.60
55785;DHT22;41709;52.536;5.688;2023-11-19T13:46:02;13.10;91.70
55785;DHT22;41709;52.536;5.688;2023-11-19T13:48:28;12.90;91.90
55785;DHT22;41709;52.536;5.688;2023-11-19T13:50:54;12.90;92.10
55785;DHT22;41709;52.536;5.688;2023-11-19T13:53:20;12.80;92.30
55785;DHT22;41709;52.536;5.688;2023-11-19T13:55:45;12.70;92.50
55785;DHT22;41709;52.536;5.688;2023-11-19T13:58:11;12.70;92.60
55785;DHT22;41709;52.536;5.688;2023-11-19T14:00:37;12.60;92.80
55785;DHT22;41709;52.536;5.688;2023-11-19T14:03:02;12.50;92.90
55785;DHT22;41709;52.536;5.688;2023-11-19T14:05:28;12.50;93.10
55785;DHT22;41709;52.536;5.688;2023-11-19T14:07:53;12.50;93.20
55785;DHT22;41709;52.536;5.688;2023-11-19T14:10:21;12.50;93.10
55785;DHT22;41709;52.536;5.688;2023-11-19T14:12:46;12.50;93.10
55785;DHT22;41709;52.536;5.688;2023-11-19T14:15:12;12.50;93.00
55785;DHT22;41709;52.536;5.688;2023-11-19T14:17:42;12.60;93.10
55785;DHT22;41709;52.536;5.688;2023-11-19T14:20:08;12.50;92.90
55785;DHT22;41709;52.536;5.688;2023-11-19T14:22:41;12.50;92.90
55785;DHT22;41709;52.536;5.688;2023-11-19T14:25:07;12.50;93.00
55785;DHT22;41709;52.536;5.688;2023-11-19T14:27:38;12.50;93.00
55785;DHT22;41709;52.536;5.688;2023-11-19T14:30:07;12.40;93.10
55785;DHT22;41709;52.536;5.688;2023-11-19T14:32:33;12.40;93.00
55785;DHT22;41709;52.536;5.688;2023-11-19T14:35:00;12.40;93.10
55785;DHT22;41709;52.536;5.688;2023-11-19T14:37:25;12.40;93.10
55785;DHT22;41709;52.536;5.688;2023-11-19T14:39:51;12.40;93.10
55785;DHT22;41709;52.536;5.688;2023-11-19T14:42:17;12.50;93.00
55785;DHT22;41709;52.536;5.688;2023-11-19T14:44:42;12.50;92.80
55785;DHT22;41709;52.536;5.688;2023-11-19T14:47:08;12.50;92.70
55785;DHT22;41709;52.536;5.688;2023-11-19T14:49:36;12.50;92.70
55785;DHT22;41709;52.536;5.688;2023-11-19T14:52:04;12.50;92.60
55785;DHT22;41709;52.536;5.688;2023-11-19T14:54:30;12.60;92.70
55785;DHT22;41709;52.536;5.688;2023-11-19T14:56:56;12.60;92.50
55785;DHT22;41709;52.536;5.688;2023-11-19T14:59:21;12.60;92.40
55785;DHT22;41709;52.536;5.688;2023-11-19T15:01:47;12.60;92.30
55785;DHT22;41709;52.536;5.688;2023-11-19T15:04:12;12.60;92.30
55785;DHT22;41709;52.536;5.688;2023-11-19T15:06:38;12.60;92.50
55785;DHT22;41709;52.536;5.688;2023-11-19T15:09:04;12.60;92.40
55785;DHT22;41709;52.536;5.688;2023-11-19T15:11:29;12.50;92.40
55785;DHT22;41709;52.536;5.688;2023-11-19T15:13:55;12.60;92.40
55785;DHT22;41709;52.536;5.688;2023-11-19T15:16:21;12.60;92.30
55785;DHT22;41709;52.536;5.688;2023-11-19T15:18:56;12.60;92.20
55785;DHT22;41709;52.536;5.688;2023-11-19T15:21:25;12.60;92.10
55785;DHT22;41709;52.536;5.688;2023-11-19T15:23:50;12.60;92.40
55785;DHT22;41709;52.536;5.688;2023-11-19T15:26:17;12.60;92.20
55785;DHT22;41709;52.536;5.688;2023-11-19T15:28:43;12.60;92.30
55785;DHT22;41709;52.536;5.688;2023-11-19T15:31:08;12.60;92.40
55785;DHT22;41709;52.536;5.688;2023-11-19T15:33:35;12.60;92.50
55785;DHT22;41709;52.536;5.688;2023-11-19T15:36:00;12.70;92.50
55785;DHT22;41709;52.536;5.688;2023-11-19T15:38:28;12.50;92.70
55785;DHT22;41709;52.536;5.688;2023-11-19T15:40:54;12.50;92.80
55785;DHT22;41709;52.536;5.688;2023-11-19T15:43:20;12.50;92.90